sensor_id;sensor_type;location;lat;lon;timestamp;temperature;humidity
17728;DHT22;8984;49.268;12.302;2023-04-24T00:01:49;14.10;99.90
17728;DHT22;8984;49.268;12.302;2023-04-24T00:04:17;14.10;99.90
17728;DHT22;8984;49.268;12.302;2023-04-24T00:06:44;14.20;99.90
17728;DHT22;8984;49.268;12.302;2023-04-24T00:09:14;14.10;99.90
17728;DHT22;8984;49.268;12.302;2023-04-24T00:11:41;14.10;99.90
17728;DHT22;8984;49.268;12.302;2023-04-24T00:14:10;14.10;99.90
17728;DHT22;8984;49.268;12.302;2023-04-24T00:16:36;14.00;99.90
17728;DHT22;8984;49.268;12.302;2023-04-24T00:19:03;14.10;99.90
17728;DHT22;8984;49.268;12.302;2023-04-24T00:21:31;14.00;99.90
17728;DHT22;8984;49.268;12.302;2023-04-24T00:23:58;14.00;99.90
17728;DHT22;8984;49.268;12.302;2023-04-24T00:26:25;14.00;99.90
17728;DHT22;8984;49.268;12.302;2023-04-24T00:28:51;14.00;99.90
17728;DHT22;8984;49.268;12.302;2023-04-24T00:31:20;14.00;99.90
17728;DHT22;8984;49.268;12.302;2023-04-24T00:33:47;14.00;99.90
17728;DHT22;8984;49.268;12.302;2023-04-24T00:36:13;14.00;99.90
17728;DHT22;8984;49.268;12.302;2023-04-24T00:38:40;14.00;99.90
17728;DHT22;8984;49.268;12.302;2023-04-24T00:41:07;14.00;99.90
17728;DHT22;8984;49.268;12.302;2023-04-24T00:43:34;14.00;99.90
17728;DHT22;8984;49.268;12.302;2023-04-24T00:46:01;14.10;99.90
17728;DHT22;8984;49.268;12.302;2023-04-24T00:48:29;14.00;99.90
17728;DHT22;8984;49.268;12.302;2023-04-24T00:50:57;14.10;99.90
17728;DHT22;8984;49.268;12.302;2023-04-24T00:53:24;14.00;99.90
17728;DHT22;8984;49.268;12.302;2023-04-24T00:55:50;14.00;99.90
17728;DHT22;8984;49.268;12.302;2023-04-24T00:58:18;13.90;99.90
17728;DHT22;8984;49.268;12.302;2023-04-24T01:00:45;13.90;99.90
17728;DHT22;8984;49.268;12.302;2023-04-24T01:03:13;13.90;99.90
17728;DHT22;8984;49.268;12.302;2023-04-24T01:05:41;13.90;99.90
17728;DHT22;8984;49.268;12.302;2023-04-24T01:08:08;14.00;99.90
17728;DHT22;8984;49.268;12.302;2023-04-24T01:10:36;14.00;99.90
17728;DHT22;8984;49.268;12.302;2023-04-24T01:13:05;14.00;99.90
17728;DHT22;8984;49.268;12.302;2023-04-24T01:15:31;14.00;99.90
17728;DHT22;8984;49.268;12.302;2023-04-24T01:17:58;14.00;99.90
17728;DHT22;8984;49.268;12.302;2023-04-24T01:20:25;14.00;99.90
17728;DHT22;8984;49.268;12.302;2023-04-24T01:22:54;14.00;99.90
17728;DHT22;8984;49.268;12.302;2023-04-24T01:25:22;14.00;99.90
17728;DHT22;8984;49.268;12.302;2023-04-24T01:27:49;14.00;99.90
17728;DHT22;8984;49.268;12.302;2023-04-24T01:30:15;14.00;99.90
17728;DHT22;8984;49.268;12.302;2023-04-24T01:32:43;13.90;99.90
17728;DHT22;8984;49.268;12.302;2023-04-24T01:35:10;13.90;99.90
17728;DHT22;8984;49.268;12.302;2023-04-24T01:37:37;13.90;99.90
17728;DHT22;8984;49.268;12.302;2023-04-24T01:40:07;13.90;99.90
17728;DHT22;8984;49.268;12.302;2023-04-24T01:42:35;14.00;99.90
17728;DHT22;8984;49.268;12.302;2023-04-24T01:45:02;13.90;99.90
17728;DHT22;8984;49.268;12.302;2023-04-24T01:47:31;13.80;99.90
17728;DHT22;8984;49.268;12.302;2023-04-24T01:49:58;13.80;99.90
17728;DHT22;8984;49.268;12.302;2023-04-24T01:52:25;13.80;99.90
17728;DHT22;8984;49.268;12.302;2023-04-24T01:54:54;13.60;99.90
17728;DHT22;8984;49.268;12.302;2023-04-24T01:57:23;13.50;99.90
17728;DHT22;8984;49.268;12.302;2023-04-24T01:59:50;13.60;99.90
17728;DHT22;8984;49.268;12.302;2023-04-24T02:02:17;13.60;99.90
17728;DHT22;8984;49.268;12.302;2023-04-24T02:04:46;13.50;99.90
17728;DHT22;8984;49.268;12.302;2023-04-24T02:07:13;13.60;99.90
17728;DHT22;8984;49.268;12.302;2023-04-24T02:09:40;13.50;99.90
17728;DHT22;8984;49.268;12.302;2023-04-24T02:12:06;13.50;99.90
17728;DHT22;8984;49.268;12.302;2023-04-24T02:14:35;13.50;99.90
17728;DHT22;8984;49.268;12.302;2023-04-24T02:17:01;13.50;99.90
17728;DHT22;8984;49.268;12.302;2023-04-24T02:19:29;13.40;99.90
17728;DHT22;8984;49.268;12.302;2023-04-24T02:21:55;13.50;99.90
17728;DHT22;8984;49.268;12.302;2023-04-24T02:24:22;13.50;99.90
17728;DHT22;8984;49.268;12.302;2023-04-24T02:26:49;13.50;99.90
17728;DHT22;8984;49.268;12.302;2023-04-24T02:29:16;13.50;99.90
17728;DHT22;8984;49.268;12.302;2023-04-24T02:31:44;13.50;99.90
17728;DHT22;8984;49.268;12.302;2023-04-24T02:34:11;13.50;99.90
17728;DHT22;8984;49.268;12.302;2023-04-24T02:36:38;13.40;99.90
17728;DHT22;8984;49.268;12.302;2023-04-24T02:39:04;13.40;99.90
17728;DHT22;8984;49.268;12.302;2023-04-24T02:41:31;13.40;99.90
17728;DHT22;8984;49.268;12.302;2023-04-24T02:43:58;13.40;99.90
17728;DHT22;8984;49.268;12.302;2023-04-24T02:46:25;13.30;99.90
17728;DHT22;8984;49.268;12.302;2023-04-24T02:48:53;13.30;99.90
17728;DHT22;8984;49.268;12.302;2023-04-24T02:51:20;13.30;99.90
17728;DHT22;8984;49.268;12.302;2023-04-24T02:53:47;13.30;99.90
17728;DHT22;8984;49.268;12.302;2023-04-24T02:56:14;13.30;99.90
17728;DHT22;8984;49.268;12.302;2023-04-24T02:58:40;13.30;99.90
17728;DHT22;8984;49.268;12.302;2023-04-24T03:01:07;13.30;99.90
17728;DHT22;8984;49.268;12.302;2023-04-24T03:03:35;13.40;99.90
17728;DHT22;8984;49.268;12.302;2023-04-24T03:06:03;13.40;99.90
17728;DHT22;8984;49.268;12.302;2023-04-24T03:08:31;13.40;99.90
17728;DHT22;8984;49.268;12.302;2023-04-24T03:10:58;13.40;99.90
17728;DHT22;8984;49.268;12.302;2023-04-24T03:13:24;13.40;99.90
17728;DHT22;8984;49.268;12.302;2023-04-24T03:15:51;13.40;99.90
17728;DHT22;8984;49.268;12.302;2023-04-24T03:18:18;13.40;99.90
17728;DHT22;8984;49.268;12.302;2023-04-24T03:20:45;13.40;99.90
17728;DHT22;8984;49.268;12.302;2023-04-24T03:23:14;13.40;99.90
17728;DHT22;8984;49.268;12.302;2023-04-24T03:25:41;13.40;99.90
17728;DHT22;8984;49.268;12.302;2023-04-24T03:28:08;13.40;99.90
17728;DHT22;8984;49.268;12.302;2023-04-24T03:30:35;13.40;99.90
17728;DHT22;8984;49.268;12.302;2023-04-24T03:33:01;13.40;99.90
17728;DHT22;8984;49.268;12.302;2023-04-24T03:35:28;13.40;99.90
17728;DHT22;8984;49.268;12.302;2023-04-24T03:37:55;13.40;99.90
17728;DHT22;8984;49.268;12.302;2023-04-24T03:40:23;13.30;99.90
17728;DHT22;8984;49.268;12.302;2023-04-24T03:42:50;13.30;99.90
17728;DHT22;8984;49.268;12.302;2023-04-24T03:45:17;13.30;99.90
17728;DHT22;8984;49.268;12.302;2023-04-24T03:47:43;13.20;99.90
17728;DHT22;8984;49.268;12.302;2023-04-24T03:50:10;13.20;99.90
17728;DHT22;8984;49.268;12.302;2023-04-24T03:52:37;13.20;99.90
17728;DHT22;8984;49.268;12.302;2023-04-24T03:55:04;13.20;99.90
17728;DHT22;8984;49.268;12.302;2023-04-24T03:57:33;13.20;99.90
17728;DHT22;8984;49.268;12.302;2023-04-24T03:59:59;13.20;99.90
17728;DHT22;8984;49.268;12.302;2023-04-24T04:02:29;13.20;99.90
17728;DHT22;8984;49.268;12.302;2023-04-24T04:04:56;13.20;99.90
17728;DHT22;8984;49.268;12.302;2023-04-24T04:07:23;13.20;99.90
17728;DHT22;8984;49.268;12.302;2023-04-24T04:09:50;13.20;99.90
17728;DHT22;8984;49.268;12.302;2023-04-24T04:12:16;13.10;99.90
17728;DHT22;8984;49.268;12.302;2023-04-24T04:14:44;13.00;99.90
17728;DHT22;8984;49.268;12.302;2023-04-24T04:17:11;13.00;99.90
17728;DHT22;8984;49.268;12.302;2023-04-24T04:19:38;13.00;99.90
17728;DHT22;8984;49.268;12.302;2023-04-24T04:22:05;13.00;99.90
17728;DHT22;8984;49.268;12.302;2023-04-24T04:24:33;13.00;99.90
17728;DHT22;8984;49.268;12.302;2023-04-24T04:27:03;13.00;99.90
17728;DHT22;8984;49.268;12.302;2023-04-24T04:29:30;13.00;99.90
17728;DHT22;8984;49.268;12.302;2023-04-24T04:31:59;13.10;99.90
17728;DHT22;8984;49.268;12.302;2023-04-24T04:34:27;13.10;99.90
17728;DHT22;8984;49.268;12.302;2023-04-24T04:36:54;13.10;99.90
17728;DHT22;8984;49.268;12.302;2023-04-24T04:39:21;13.10;99.90
17728;DHT22;8984;49.268;12.302;2023-04-24T04:41:47;13.10;99.90
17728;DHT22;8984;49.268;12.302;2023-04-24T04:44:15;13.20;99.90
17728;DHT22;8984;49.268;12.302;2023-04-24T04:46:42;13.20;99.90
17728;DHT22;8984;49.268;12.302;2023-04-24T04:49:10;13.30;99.90
17728;DHT22;8984;49.268;12.302;2023-04-24T04:51:38;13.20;99.90
17728;DHT22;8984;49.268;12.302;2023-04-24T04:54:05;13.10;99.90
17728;DHT22;8984;49.268;12.302;2023-04-24T04:56:32;13.10;99.90
17728;DHT22;8984;49.268;12.302;2023-04-24T04:58:58;13.10;99.90
17728;DHT22;8984;49.268;12.302;2023-04-24T05:01:25;13.10;99.90
17728;DHT22;8984;49.268;12.302;2023-04-24T05:03:52;13.20;99.90
17728;DHT22;8984;49.268;12.302;2023-04-24T05:06:21;13.30;99.90
17728;DHT22;8984;49.268;12.302;2023-04-24T05:08:47;13.10;99.90
17728;DHT22;8984;49.268;12.302;2023-04-24T05:11:14;13.20;99.90
17728;DHT22;8984;49.268;12.302;2023-04-24T05:13:41;13.30;99.90
17728;DHT22;8984;49.268;12.302;2023-04-24T05:16:08;13.30;99.90
17728;DHT22;8984;49.268;12.302;2023-04-24T05:18:35;13.30;99.90
17728;DHT22;8984;49.268;12.302;2023-04-24T05:21:02;13.40;99.90
17728;DHT22;8984;49.268;12.302;2023-04-24T05:23:30;13.40;99.90
17728;DHT22;8984;49.268;12.302;2023-04-24T05:25:57;13.30;99.90
17728;DHT22;8984;49.268;12.302;2023-04-24T05:28:24;13.30;99.90
17728;DHT22;8984;49.268;12.302;2023-04-24T05:30:53;13.30;99.90
17728;DHT22;8984;49.268;12.302;2023-04-24T05:33:20;13.30;99.90
17728;DHT22;8984;49.268;12.302;2023-04-24T05:35:47;13.30;99.90
17728;DHT22;8984;49.268;12.302;2023-04-24T05:38:14;13.30;99.90
17728;DHT22;8984;49.268;12.302;2023-04-24T05:40:44;13.30;99.90
17728;DHT22;8984;49.268;12.302;2023-04-24T05:43:11;13.40;99.90
17728;DHT22;8984;49.268;12.302;2023-04-24T05:45:38;13.40;99.90
17728;DHT22;8984;49.268;12.302;2023-04-24T05:48:05;13.40;99.90
17728;DHT22;8984;49.268;12.302;2023-04-24T05:50:32;13.30;99.90
17728;DHT22;8984;49.268;12.302;2023-04-24T05:52:59;13.30;99.90
17728;DHT22;8984;49.268;12.302;2023-04-24T05:55:27;13.30;99.90
17728;DHT22;8984;49.268;12.302;2023-04-24T05:57:55;13.40;99.90
17728;DHT22;8984;49.268;12.302;2023-04-24T06:00:23;13.50;99.90
17728;DHT22;8984;49.268;12.302;2023-04-24T06:02:50;13.50;99.90
17728;DHT22;8984;49.268;12.302;2023-04-24T06:05:18;13.40;99.90
17728;DHT22;8984;49.268;12.302;2023-04-24T06:07:45;13.50;99.90
17728;DHT22;8984;49.268;12.302;2023-04-24T06:10:11;13.40;99.90
17728;DHT22;8984;49.268;12.302;2023-04-24T06:12:38;13.40;99.90
17728;DHT22;8984;49.268;12.302;2023-04-24T06:15:07;13.40;99.90
17728;DHT22;8984;49.268;12.302;2023-04-24T06:17:34;13.50;99.90
17728;DHT22;8984;49.268;12.302;2023-04-24T06:20:01;13.60;99.90
17728;DHT22;8984;49.268;12.302;2023-04-24T06:22:30;13.70;99.90
17728;DHT22;8984;49.268;12.302;2023-04-24T06:24:57;13.70;99.90
17728;DHT22;8984;49.268;12.302;2023-04-24T06:27:24;13.70;99.90
17728;DHT22;8984;49.268;12.302;2023-04-24T06:29:50;13.70;99.90
17728;DHT22;8984;49.268;12.302;2023-04-24T06:32:21;13.70;99.90
17728;DHT22;8984;49.268;12.302;2023-04-24T06:34:48;13.60;99.90
17728;DHT22;8984;49.268;12.302;2023-04-24T06:37:15;13.70;99.90
17728;DHT22;8984;49.268;12.302;2023-04-24T06:39:42;13.70;99.90
17728;DHT22;8984;49.268;12.302;2023-04-24T06:42:08;13.80;99.90
17728;DHT22;8984;49.268;12.302;2023-04-24T06:44:36;13.90;99.90
17728;DHT22;8984;49.268;12.302;2023-04-24T06:47:06;14.10;99.90
17728;DHT22;8984;49.268;12.302;2023-04-24T06:49:34;13.90;99.90
17728;DHT22;8984;49.268;12.302;2023-04-24T06:52:01;13.80;99.90
17728;DHT22;8984;49.268;12.302;2023-04-24T06:54:28;13.90;99.90
17728;DHT22;8984;49.268;12.302;2023-04-24T06:56:55;13.90;99.90
17728;DHT22;8984;49.268;12.302;2023-04-24T06:59:22;13.90;99.90
17728;DHT22;8984;49.268;12.302;2023-04-24T07:01:49;14.00;99.90
17728;DHT22;8984;49.268;12.302;2023-04-24T07:04:27;14.10;99.90
17728;DHT22;8984;49.268;12.302;2023-04-24T07:06:59;14.10;99.90
17728;DHT22;8984;49.268;12.302;2023-04-24T07:09:31;14.20;99.90
17728;DHT22;8984;49.268;12.302;2023-04-24T07:12:01;14.20;99.90
17728;DHT22;8984;49.268;12.302;2023-04-24T07:14:37;14.10;99.90
17728;DHT22;8984;49.268;12.302;2023-04-24T07:17:09;14.20;99.90
17728;DHT22;8984;49.268;12.302;2023-04-24T07:19:40;14.20;99.90
17728;DHT22;8984;49.268;12.302;2023-04-24T07:22:26;14.30;99.90
17728;DHT22;8984;49.268;12.302;2023-04-24T07:24:53;14.30;99.90
17728;DHT22;8984;49.268;12.302;2023-04-24T07:27:24;14.50;99.90
17728;DHT22;8984;49.268;12.302;2023-04-24T07:29:59;14.60;99.90
17728;DHT22;8984;49.268;12.302;2023-04-24T07:32:32;14.70;99.90
17728;DHT22;8984;49.268;12.302;2023-04-24T07:35:01;14.70;99.90
17728;DHT22;8984;49.268;12.302;2023-04-24T07:37:33;14.90;99.90
17728;DHT22;8984;49.268;12.302;2023-04-24T07:40:00;14.90;99.90
17728;DHT22;8984;49.268;12.302;2023-04-24T07:42:29;15.00;99.90
17728;DHT22;8984;49.268;12.302;2023-04-24T07:45:06;15.00;99.90
17728;DHT22;8984;49.268;12.302;2023-04-24T07:47:53;15.10;99.90
17728;DHT22;8984;49.268;12.302;2023-04-24T07:50:34;15.20;99.90
17728;DHT22;8984;49.268;12.302;2023-04-24T07:53:14;15.20;99.90
17728;DHT22;8984;49.268;12.302;2023-04-24T07:56:03;15.30;99.90
17728;DHT22;8984;49.268;12.302;2023-04-24T07:58:47;15.40;99.90
17728;DHT22;8984;49.268;12.302;2023-04-24T08:01:16;15.70;99.90
17728;DHT22;8984;49.268;12.302;2023-04-24T08:03:48;15.70;99.90
17728;DHT22;8984;49.268;12.302;2023-04-24T08:06:20;15.70;99.90
17728;DHT22;8984;49.268;12.302;2023-04-24T08:08:50;15.50;99.90
17728;DHT22;8984;49.268;12.302;2023-04-24T08:11:34;15.50;99.90
17728;DHT22;8984;49.268;12.302;2023-04-24T08:14:07;15.80;99.90
17728;DHT22;8984;49.268;12.302;2023-04-24T08:16:37;15.90;99.90
17728;DHT22;8984;49.268;12.302;2023-04-24T08:19:08;16.10;99.90
17728;DHT22;8984;49.268;12.302;2023-04-24T08:21:39;16.00;99.90
17728;DHT22;8984;49.268;12.302;2023-04-24T08:24:17;16.10;99.90
17728;DHT22;8984;49.268;12.302;2023-04-24T08:26:47;16.20;99.90
17728;DHT22;8984;49.268;12.302;2023-04-24T08:29:23;16.40;99.90
17728;DHT22;8984;49.268;12.302;2023-04-24T08:31:57;16.60;99.90
17728;DHT22;8984;49.268;12.302;2023-04-24T08:34:37;16.70;99.90
17728;DHT22;8984;49.268;12.302;2023-04-24T08:37:15;16.70;99.90
17728;DHT22;8984;49.268;12.302;2023-04-24T08:39:44;16.10;99.90
17728;DHT22;8984;49.268;12.302;2023-04-24T08:42:13;15.00;99.90
17728;DHT22;8984;49.268;12.302;2023-04-24T08:44:42;14.80;99.90
17728;DHT22;8984;49.268;12.302;2023-04-24T08:47:12;14.40;99.90
17728;DHT22;8984;49.268;12.302;2023-04-24T08:49:39;14.10;99.90
17728;DHT22;8984;49.268;12.302;2023-04-24T08:52:10;13.80;99.90
17728;DHT22;8984;49.268;12.302;2023-04-24T08:54:48;13.60;99.90
17728;DHT22;8984;49.268;12.302;2023-04-24T08:57:16;13.40;99.90
17728;DHT22;8984;49.268;12.302;2023-04-24T09:00:01;13.40;99.90
17728;DHT22;8984;49.268;12.302;2023-04-24T09:02:29;13.50;99.90
17728;DHT22;8984;49.268;12.302;2023-04-24T09:05:04;13.60;99.90
17728;DHT22;8984;49.268;12.302;2023-04-24T09:07:36;13.60;99.90
17728;DHT22;8984;49.268;12.302;2023-04-24T09:10:13;13.60;99.90
17728;DHT22;8984;49.268;12.302;2023-04-24T09:12:41;13.80;99.90
17728;DHT22;8984;49.268;12.302;2023-04-24T09:15:09;13.90;99.90
17728;DHT22;8984;49.268;12.302;2023-04-24T09:17:47;14.20;99.90
17728;DHT22;8984;49.268;12.302;2023-04-24T09:20:23;14.20;99.90
17728;DHT22;8984;49.268;12.302;2023-04-24T09:23:26;14.40;99.90
17728;DHT22;8984;49.268;12.302;2023-04-24T09:25:57;14.60;99.90
17728;DHT22;8984;49.268;12.302;2023-04-24T09:28:31;14.50;99.90
17728;DHT22;8984;49.268;12.302;2023-04-24T09:31:06;14.60;99.90
17728;DHT22;8984;49.268;12.302;2023-04-24T09:33:34;14.80;99.90
17728;DHT22;8984;49.268;12.302;2023-04-24T09:36:05;14.70;99.90
17728;DHT22;8984;49.268;12.302;2023-04-24T09:38:37;15.00;99.90
17728;DHT22;8984;49.268;12.302;2023-04-24T09:44:13;15.30;99.90
17728;DHT22;8984;49.268;12.302;2023-04-24T09:46:41;15.60;99.90
17728;DHT22;8984;49.268;12.302;2023-04-24T09:49:09;15.60;99.90
17728;DHT22;8984;49.268;12.302;2023-04-24T09:51:38;15.70;99.90
17728;DHT22;8984;49.268;12.302;2023-04-24T09:54:13;15.60;99.90
17728;DHT22;8984;49.268;12.302;2023-04-24T09:56:43;15.70;99.90
17728;DHT22;8984;49.268;12.302;2023-04-24T09:59:12;15.80;99.90
17728;DHT22;8984;49.268;12.302;2023-04-24T10:01:39;16.00;99.90
17728;DHT22;8984;49.268;12.302;2023-04-24T10:04:15;16.10;99.90
17728;DHT22;8984;49.268;12.302;2023-04-24T10:06:43;16.40;99.90
17728;DHT22;8984;49.268;12.302;2023-04-24T10:09:10;16.20;99.90
17728;DHT22;8984;49.268;12.302;2023-04-24T10:14:09;16.10;99.90
17728;DHT22;8984;49.268;12.302;2023-04-24T10:16:39;15.70;99.90
17728;DHT22;8984;49.268;12.302;2023-04-24T10:19:07;15.80;99.90
17728;DHT22;8984;49.268;12.302;2023-04-24T10:21:34;16.00;99.90
17728;DHT22;8984;49.268;12.302;2023-04-24T10:24:03;15.90;99.90
17728;DHT22;8984;49.268;12.302;2023-04-24T10:26:30;16.00;99.90
17728;DHT22;8984;49.268;12.302;2023-04-24T10:28:58;16.10;99.90
17728;DHT22;8984;49.268;12.302;2023-04-24T10:31:26;16.20;99.90
17728;DHT22;8984;49.268;12.302;2023-04-24T10:34:01;16.40;99.90
17728;DHT22;8984;49.268;12.302;2023-04-24T10:36:29;16.40;99.90
17728;DHT22;8984;49.268;12.302;2023-04-24T10:39:00;16.30;99.90
17728;DHT22;8984;49.268;12.302;2023-04-24T10:41:27;16.30;99.90
17728;DHT22;8984;49.268;12.302;2023-04-24T10:44:05;16.20;99.90
17728;DHT22;8984;49.268;12.302;2023-04-24T10:46:33;16.20;99.90
17728;DHT22;8984;49.268;12.302;2023-04-24T10:49:04;15.90;99.90
17728;DHT22;8984;49.268;12.302;2023-04-24T10:51:46;16.00;99.90
17728;DHT22;8984;49.268;12.302;2023-04-24T10:54:24;16.10;99.90
17728;DHT22;8984;49.268;12.302;2023-04-24T10:56:51;16.00;99.90
17728;DHT22;8984;49.268;12.302;2023-04-24T10:59:25;16.00;99.90
17728;DHT22;8984;49.268;12.302;2023-04-24T11:01:55;16.00;99.90
17728;DHT22;8984;49.268;12.302;2023-04-24T11:04:33;15.50;99.90
17728;DHT22;8984;49.268;12.302;2023-04-24T11:07:01;15.60;99.90
17728;DHT22;8984;49.268;12.302;2023-04-24T11:09:31;15.60;99.90
17728;DHT22;8984;49.268;12.302;2023-04-24T11:12:05;15.70;99.90
17728;DHT22;8984;49.268;12.302;2023-04-24T11:15:00;15.80;99.90
17728;DHT22;8984;49.268;12.302;2023-04-24T11:17:30;16.10;99.90
17728;DHT22;8984;49.268;12.302;2023-04-24T11:20:03;16.30;99.90
17728;DHT22;8984;49.268;12.302;2023-04-24T11:22:33;16.30;99.90
17728;DHT22;8984;49.268;12.302;2023-04-24T11:25:02;16.70;99.90
17728;DHT22;8984;49.268;12.302;2023-04-24T11:27:30;16.80;99.90
17728;DHT22;8984;49.268;12.302;2023-04-24T11:30:02;16.70;99.90
17728;DHT22;8984;49.268;12.302;2023-04-24T11:32:33;16.70;99.90
17728;DHT22;8984;49.268;12.302;2023-04-24T11:35:03;17.00;99.90
17728;DHT22;8984;49.268;12.302;2023-04-24T11:37:35;17.00;99.90
17728;DHT22;8984;49.268;12.302;2023-04-24T11:40:04;17.10;99.90
17728;DHT22;8984;49.268;12.302;2023-04-24T11:42:34;17.20;99.90
17728;DHT22;8984;49.268;12.302;2023-04-24T11:45:01;17.40;99.90
17728;DHT22;8984;49.268;12.302;2023-04-24T11:47:33;17.30;99.90
17728;DHT22;8984;49.268;12.302;2023-04-24T11:50:00;17.20;99.90
17728;DHT22;8984;49.268;12.302;2023-04-24T11:52:29;17.10;99.90
17728;DHT22;8984;49.268;12.302;2023-04-24T11:54:57;17.10;99.90
17728;DHT22;8984;49.268;12.302;2023-04-24T11:57:25;16.70;99.90
17728;DHT22;8984;49.268;12.302;2023-04-24T11:59:54;16.60;99.90
17728;DHT22;8984;49.268;12.302;2023-04-24T12:02:22;16.80;99.90
17728;DHT22;8984;49.268;12.302;2023-04-24T12:04:49;16.50;99.90
17728;DHT22;8984;49.268;12.302;2023-04-24T12:07:16;16.40;99.90
17728;DHT22;8984;49.268;12.302;2023-04-24T12:09:56;16.40;99.90
17728;DHT22;8984;49.268;12.302;2023-04-24T12:12:25;16.40;99.90
17728;DHT22;8984;49.268;12.302;2023-04-24T12:14:54;16.40;99.90
17728;DHT22;8984;49.268;12.302;2023-04-24T12:17:25;16.50;99.90
17728;DHT22;8984;49.268;12.302;2023-04-24T12:19:52;16.30;99.90
17728;DHT22;8984;49.268;12.302;2023-04-24T12:22:23;16.40;99.90
17728;DHT22;8984;49.268;12.302;2023-04-24T12:24:59;16.40;99.90
17728;DHT22;8984;49.268;12.302;2023-04-24T12:27:26;16.60;99.90
17728;DHT22;8984;49.268;12.302;2023-04-24T12:29:53;16.70;99.90
17728;DHT22;8984;49.268;12.302;2023-04-24T12:32:22;16.80;99.90
17728;DHT22;8984;49.268;12.302;2023-04-24T12:34:49;16.70;99.90
17728;DHT22;8984;49.268;12.302;2023-04-24T12:37:18;16.90;99.90
17728;DHT22;8984;49.268;12.302;2023-04-24T12:40:01;17.30;99.90
17728;DHT22;8984;49.268;12.302;2023-04-24T12:42:29;17.50;99.90
17728;DHT22;8984;49.268;12.302;2023-04-24T12:44:57;17.60;99.90
17728;DHT22;8984;49.268;12.302;2023-04-24T12:47:33;17.50;99.90
17728;DHT22;8984;49.268;12.302;2023-04-24T12:50:15;17.30;99.90
17728;DHT22;8984;49.268;12.302;2023-04-24T12:52:54;17.50;99.90
17728;DHT22;8984;49.268;12.302;2023-04-24T12:55:39;17.50;99.90
17728;DHT22;8984;49.268;12.302;2023-04-24T12:58:17;17.40;99.90
17728;DHT22;8984;49.268;12.302;2023-04-24T13:00:48;17.20;99.90
17728;DHT22;8984;49.268;12.302;2023-04-24T13:03:26;16.30;99.90
17728;DHT22;8984;49.268;12.302;2023-04-24T13:05:56;16.10;99.90
17728;DHT22;8984;49.268;12.302;2023-04-24T13:08:36;16.00;99.90
17728;DHT22;8984;49.268;12.302;2023-04-24T13:11:13;16.00;99.90
17728;DHT22;8984;49.268;12.302;2023-04-24T13:13:54;16.20;99.90
17728;DHT22;8984;49.268;12.302;2023-04-24T13:16:23;16.20;99.90
17728;DHT22;8984;49.268;12.302;2023-04-24T13:18:51;16.60;99.90
17728;DHT22;8984;49.268;12.302;2023-04-24T13:21:21;16.60;99.90
17728;DHT22;8984;49.268;12.302;2023-04-24T13:23:50;16.70;99.90
17728;DHT22;8984;49.268;12.302;2023-04-24T13:26:20;16.80;99.90
17728;DHT22;8984;49.268;12.302;2023-04-24T13:28:51;16.50;99.90
17728;DHT22;8984;49.268;12.302;2023-04-24T13:31:33;16.40;99.90
17728;DHT22;8984;49.268;12.302;2023-04-24T13:34:02;16.60;99.90
17728;DHT22;8984;49.268;12.302;2023-04-24T13:36:29;16.40;99.90
17728;DHT22;8984;49.268;12.302;2023-04-24T13:39:06;16.40;99.90
17728;DHT22;8984;49.268;12.302;2023-04-24T13:41:36;16.40;99.90
17728;DHT22;8984;49.268;12.302;2023-04-24T13:44:04;16.40;99.90
17728;DHT22;8984;49.268;12.302;2023-04-24T13:46:40;16.30;99.90
17728;DHT22;8984;49.268;12.302;2023-04-24T13:49:10;16.20;99.90
17728;DHT22;8984;49.268;12.302;2023-04-24T13:51:40;16.10;99.90
17728;DHT22;8984;49.268;12.302;2023-04-24T13:54:08;16.20;99.90
17728;DHT22;8984;49.268;12.302;2023-04-24T13:56:39;16.10;99.90
17728;DHT22;8984;49.268;12.302;2023-04-24T13:59:09;16.10;99.90
17728;DHT22;8984;49.268;12.302;2023-04-24T14:01:45;16.10;99.90
17728;DHT22;8984;49.268;12.302;2023-04-24T14:04:13;16.20;99.90
17728;DHT22;8984;49.268;12.302;2023-04-24T14:06:41;16.30;99.90
17728;DHT22;8984;49.268;12.302;2023-04-24T14:09:13;16.20;99.90
17728;DHT22;8984;49.268;12.302;2023-04-24T14:11:47;15.90;99.90
17728;DHT22;8984;49.268;12.302;2023-04-24T14:14:16;16.10;99.90
17728;DHT22;8984;49.268;12.302;2023-04-24T14:16:44;16.20;99.90
17728;DHT22;8984;49.268;12.302;2023-04-24T14:19:16;16.10;99.90
17728;DHT22;8984;49.268;12.302;2023-04-24T14:21:47;16.30;99.90
17728;DHT22;8984;49.268;12.302;2023-04-24T14:24:18;16.30;99.90
17728;DHT22;8984;49.268;12.302;2023-04-24T14:26:57;16.40;99.90
17728;DHT22;8984;49.268;12.302;2023-04-24T14:29:33;16.70;99.90
17728;DHT22;8984;49.268;12.302;2023-04-24T14:32:03;16.90;99.90
17728;DHT22;8984;49.268;12.302;2023-04-24T14:34:47;16.80;99.90
17728;DHT22;8984;49.268;12.302;2023-04-24T14:37:16;16.30;99.90
17728;DHT22;8984;49.268;12.302;2023-04-24T14:39:46;16.60;99.90
17728;DHT22;8984;49.268;12.302;2023-04-24T14:42:18;16.50;99.90
17728;DHT22;8984;49.268;12.302;2023-04-24T14:44:48;16.70;99.90
17728;DHT22;8984;49.268;12.302;2023-04-24T14:47:29;16.70;99.90
17728;DHT22;8984;49.268;12.302;2023-04-24T14:49:58;16.70;99.90
17728;DHT22;8984;49.268;12.302;2023-04-24T14:52:27;17.10;99.90
17728;DHT22;8984;49.268;12.302;2023-04-24T15:00:58;17.00;99.90
17728;DHT22;8984;49.268;12.302;2023-04-24T15:03:25;17.10;99.90
17728;DHT22;8984;49.268;12.302;2023-04-24T15:05:52;16.80;99.90
17728;DHT22;8984;49.268;12.302;2023-04-24T15:08:20;16.80;99.90
17728;DHT22;8984;49.268;12.302;2023-04-24T15:10:47;16.70;99.90
17728;DHT22;8984;49.268;12.302;2023-04-24T15:13:14;16.60;99.90
17728;DHT22;8984;49.268;12.302;2023-04-24T15:15:41;16.50;99.90
17728;DHT22;8984;49.268;12.302;2023-04-24T15:18:10;16.40;99.90
17728;DHT22;8984;49.268;12.302;2023-04-24T15:20:37;16.30;99.90
17728;DHT22;8984;49.268;12.302;2023-04-24T15:23:04;16.40;99.90
17728;DHT22;8984;49.268;12.302;2023-04-24T15:25:31;16.10;99.90
17728;DHT22;8984;49.268;12.302;2023-04-24T15:27:58;15.70;99.90
17728;DHT22;8984;49.268;12.302;2023-04-24T15:30:26;15.40;99.90
17728;DHT22;8984;49.268;12.302;2023-04-24T15:32:53;15.40;99.90
17728;DHT22;8984;49.268;12.302;2023-04-24T15:35:21;15.10;99.90
17728;DHT22;8984;49.268;12.302;2023-04-24T15:37:48;15.10;99.90
17728;DHT22;8984;49.268;12.302;2023-04-24T15:40:15;15.20;99.90
17728;DHT22;8984;49.268;12.302;2023-04-24T15:42:43;15.00;99.90
17728;DHT22;8984;49.268;12.302;2023-04-24T15:45:10;14.90;99.90
17728;DHT22;8984;49.268;12.302;2023-04-24T15:47:37;14.70;99.90
17728;DHT22;8984;49.268;12.302;2023-04-24T15:50:05;14.50;99.90
17728;DHT22;8984;49.268;12.302;2023-04-24T15:52:35;14.50;99.90
17728;DHT22;8984;49.268;12.302;2023-04-24T15:55:03;14.40;99.90
17728;DHT22;8984;49.268;12.302;2023-04-24T15:57:30;14.40;99.90